createdAt,value
2018-03-06T00:02:12.845Z,23.18
2018-03-06T00:04:41.328Z,23.20
2018-03-06T00:07:09.817Z,23.19
2018-03-06T00:09:38.305Z,23.19
2018-03-06T00:12:06.778Z,23.19
2018-03-06T00:14:35.271Z,23.18
2018-03-06T00:17:03.744Z,23.19
2018-03-06T00:19:32.249Z,23.19
2018-03-06T00:22:00.737Z,23.19
2018-03-06T00:24:29.222Z,23.19
2018-03-06T00:26:57.720Z,23.18
2018-03-06T00:29:26.202Z,23.18
2018-03-06T00:31:54.678Z,23.18
2018-03-06T00:34:23.163Z,23.18
2018-03-06T00:36:51.657Z,23.19
2018-03-06T00:39:20.144Z,23.18
2018-03-06T00:41:48.621Z,23.18
2018-03-06T00:44:16.933Z,23.18
2018-03-06T00:46:45.445Z,23.18
2018-03-06T00:49:13.737Z,23.19
2018-03-06T00:51:42.221Z,23.18
2018-03-06T00:54:10.702Z,23.18
2018-03-06T00:56:39.188Z,23.18
2018-03-06T00:59:07.517Z,23.18
2018-03-06T01:01:35.837Z,23.18
2018-03-06T01:04:04.313Z,23.18
2018-03-06T01:06:32.810Z,23.18
2018-03-06T01:09:01.300Z,23.19
2018-03-06T01:11:29.613Z,23.19
2018-03-06T01:13:57.929Z,23.19
2018-03-06T01:16:26.409Z,23.18
2018-03-06T01:18:54.886Z,23.19
2018-03-06T01:21:23.362Z,23.19
2018-03-06T01:23:51.838Z,23.19
2018-03-06T01:26:20.329Z,23.18
2018-03-06T01:28:48.801Z,23.19
2018-03-06T01:31:17.266Z,23.19
2018-03-06T01:33:45.788Z,23.19
2018-03-06T01:36:14.296Z,23.19
2018-03-06T01:38:42.756Z,23.18
2018-03-06T01:41:11.246Z,23.18
2018-03-06T01:43:39.758Z,23.18
2018-03-06T01:46:08.222Z,23.19
2018-03-06T01:48:36.700Z,23.19
2018-03-06T01:51:05.171Z,23.19
2018-03-06T01:53:33.642Z,23.19
2018-03-06T01:56:03.817Z,23.18
2018-03-06T01:58:32.293Z,23.19
2018-03-06T02:01:00.767Z,23.18
2018-03-06T02:03:29.060Z,23.19
2018-03-06T02:05:57.354Z,23.19
2018-03-06T02:08:25.851Z,23.19
2018-03-06T02:10:54.336Z,23.19
2018-03-06T02:13:22.801Z,23.19
2018-03-06T02:15:51.282Z,23.21
2018-03-06T02:18:19.765Z,23.21
2018-03-06T02:20:48.260Z,23.22
2018-03-06T02:23:16.567Z,23.22
2018-03-06T02:25:45.049Z,23.22
2018-03-06T02:28:13.356Z,23.23
2018-03-06T02:30:41.852Z,23.23
2018-03-06T02:33:10.360Z,23.23
2018-03-06T02:35:38.833Z,23.23
2018-03-06T02:38:07.341Z,23.23
2018-03-06T02:40:35.633Z,23.23
2018-03-06T02:43:04.120Z,23.24
2018-03-06T02:45:32.602Z,23.23
2018-03-06T02:48:01.069Z,23.23
2018-03-06T02:50:29.571Z,23.23
2018-03-06T02:52:58.050Z,23.23
2018-03-06T02:55:26.522Z,23.22
2018-03-06T02:57:55.009Z,23.22
2018-03-06T03:00:23.510Z,23.21
2018-03-06T03:02:51.821Z,23.21
2018-03-06T03:05:20.340Z,23.20
2018-03-06T03:07:48.818Z,23.20
2018-03-06T03:10:17.289Z,23.05
2018-03-06T03:12:45.815Z,22.78
2018-03-06T03:15:14.328Z,22.62
2018-03-06T03:17:42.806Z,22.64
2018-03-06T03:20:11.310Z,22.70
2018-03-06T03:22:39.796Z,22.73
2018-03-06T03:25:08.271Z,22.77
2018-03-06T03:27:36.599Z,22.80
2018-03-06T03:30:05.107Z,22.83
2018-03-06T03:32:33.581Z,22.86
2018-03-06T03:35:02.073Z,22.87
2018-03-06T03:37:30.573Z,22.89
2018-03-06T03:39:59.065Z,22.90
2018-03-06T03:42:27.557Z,22.92
2018-03-06T03:44:56.177Z,22.92
2018-03-06T03:47:24.668Z,22.94
2018-03-06T03:49:52.979Z,22.95
2018-03-06T03:52:21.462Z,22.84
2018-03-06T03:54:49.949Z,22.78
2018-03-06T03:57:18.286Z,22.79
2018-03-06T03:59:46.771Z,22.82
2018-03-06T04:02:15.259Z,22.85
2018-03-06T04:04:43.813Z,22.89
2018-03-06T04:07:12.130Z,22.92
2018-03-06T04:09:40.601Z,22.97
2018-03-06T04:12:08.926Z,23.01
2018-03-06T04:14:37.212Z,23.04
2018-03-06T04:17:05.699Z,23.08
2018-03-06T04:19:34.227Z,23.10
2018-03-06T04:22:02.718Z,23.12
2018-03-06T04:24:31.206Z,23.14
2018-03-06T04:26:59.711Z,23.15
2018-03-06T04:29:28.176Z,23.16
2018-03-06T04:31:56.654Z,23.17
2018-03-06T04:34:25.177Z,23.19
2018-03-06T04:36:53.648Z,23.20
2018-03-06T04:39:23.429Z,23.21
2018-03-06T04:41:51.937Z,23.21
2018-03-06T04:44:20.429Z,23.22
2018-03-06T04:46:48.859Z,23.23
2018-03-06T04:49:17.374Z,23.22
2018-03-06T04:51:45.941Z,23.22
2018-03-06T04:54:14.242Z,23.23
2018-03-06T04:56:42.746Z,23.23
2018-03-06T04:59:11.219Z,23.24
2018-03-06T05:01:39.694Z,23.24
2018-03-06T05:04:08.183Z,23.26
2018-03-06T05:06:36.662Z,23.27
2018-03-06T05:09:04.692Z,23.27
2018-03-06T05:11:33.012Z,23.28
2018-03-06T05:14:01.502Z,23.29
2018-03-06T05:16:29.997Z,23.29
2018-03-06T05:18:58.493Z,23.29
2018-03-06T05:21:45.118Z,23.29
2018-03-06T05:24:13.631Z,23.30
2018-03-06T05:26:41.923Z,23.30
2018-03-06T05:29:10.408Z,23.31
2018-03-06T05:31:38.913Z,23.31
2018-03-06T05:34:07.402Z,23.31
2018-03-06T05:36:35.878Z,23.32
2018-03-06T05:39:03.708Z,23.32
2018-03-06T05:41:32.048Z,23.33
2018-03-06T05:44:00.522Z,23.34
2018-03-06T05:46:28.845Z,23.34
2018-03-06T05:48:57.349Z,23.34
2018-03-06T05:51:25.834Z,23.35
2018-03-06T05:53:54.331Z,23.35
2018-03-06T05:56:22.610Z,23.35
2018-03-06T05:58:50.900Z,23.35
2018-03-06T06:01:19.402Z,23.36
2018-03-06T06:03:47.892Z,23.36
2018-03-06T06:06:16.396Z,23.36
2018-03-06T06:08:44.746Z,23.37
2018-03-06T06:11:13.229Z,23.38
2018-03-06T06:13:41.699Z,23.38
2018-03-06T06:16:10.011Z,23.39
2018-03-06T06:18:38.289Z,23.39
2018-03-06T06:21:06.592Z,23.39
2018-03-06T06:23:34.904Z,23.39
2018-03-06T06:26:03.395Z,23.40
2018-03-06T06:28:31.693Z,23.41
2018-03-06T06:31:00.031Z,23.41
2018-03-06T06:33:28.337Z,23.41
2018-03-06T06:35:56.648Z,23.39
2018-03-06T06:38:24.958Z,23.37
2018-03-06T06:40:53.259Z,23.36
2018-03-06T06:43:21.532Z,23.37
2018-03-06T06:45:50.047Z,23.38
2018-03-06T06:48:18.350Z,23.38
2018-03-06T06:50:46.642Z,23.39
2018-03-06T06:53:14.968Z,23.41
2018-03-06T06:55:43.249Z,23.42
2018-03-06T06:58:11.536Z,23.42
2018-03-06T07:00:39.856Z,23.42
2018-03-06T07:03:08.156Z,22.70
2018-03-06T07:05:36.445Z,22.03
2018-03-06T07:08:05.596Z,21.34
2018-03-06T07:10:33.881Z,20.74
2018-03-06T07:13:02.176Z,20.33
2018-03-06T07:15:30.473Z,19.90
2018-03-06T07:17:58.750Z,19.59
2018-03-06T07:20:26.785Z,19.41
2018-03-06T07:22:55.110Z,19.23
2018-03-06T07:25:23.400Z,19.30
2018-03-06T07:27:51.674Z,19.38
2018-03-06T07:30:19.990Z,19.55
2018-03-06T07:32:48.303Z,19.79
2018-03-06T07:35:16.594Z,19.98
2018-03-06T07:37:44.926Z,20.15
2018-03-06T07:40:13.243Z,20.25
2018-03-06T07:42:41.527Z,20.33
2018-03-06T07:45:10.536Z,20.41
2018-03-06T07:47:38.839Z,20.47
2018-03-06T07:50:07.141Z,20.52
2018-03-06T07:52:35.486Z,20.55
2018-03-06T07:55:03.788Z,20.56
2018-03-06T07:57:32.085Z,20.57
2018-03-06T08:00:00.429Z,20.58
2018-03-06T08:02:28.784Z,20.59
2018-03-06T08:04:57.209Z,20.60
2018-03-06T08:07:25.524Z,20.60
2018-03-06T08:09:53.841Z,20.65
2018-03-06T08:12:22.139Z,20.67
2018-03-06T08:14:50.453Z,20.68
2018-03-06T08:17:18.855Z,20.68
2018-03-06T08:19:47.139Z,20.79
2018-03-06T08:22:15.479Z,21.01
2018-03-06T08:24:43.764Z,21.21
2018-03-06T08:27:12.046Z,21.40
2018-03-06T08:29:40.449Z,21.58
2018-03-06T08:32:08.782Z,21.73
2018-03-06T08:34:37.070Z,21.86
2018-03-06T08:37:05.398Z,22.01
2018-03-06T08:39:33.679Z,22.11
2018-03-06T08:42:01.981Z,22.22
2018-03-06T08:44:30.295Z,22.31
2018-03-06T08:46:58.598Z,22.40
2018-03-06T08:49:26.903Z,22.47
2018-03-06T08:51:55.226Z,22.54
2018-03-06T08:54:23.520Z,22.61
2018-03-06T08:56:51.821Z,22.69
2018-03-06T08:59:20.128Z,22.76
2018-03-06T09:01:48.402Z,22.80
2018-03-06T09:04:16.681Z,22.83
2018-03-06T09:06:44.802Z,22.87
2018-03-06T09:09:13.081Z,22.90
2018-03-06T09:11:41.357Z,22.94
2018-03-06T09:14:09.676Z,22.97
2018-03-06T09:16:37.970Z,23.00
2018-03-06T09:19:06.260Z,23.03
2018-03-06T09:21:34.563Z,23.04
2018-03-06T09:24:02.847Z,23.05
2018-03-06T09:26:31.137Z,23.08
2018-03-06T09:28:59.439Z,23.10
2018-03-06T09:31:27.727Z,23.11
2018-03-06T09:33:56.021Z,23.07
2018-03-06T09:36:24.350Z,22.97
2018-03-06T09:38:52.656Z,22.87
2018-03-06T09:41:20.762Z,22.77
2018-03-06T09:43:49.083Z,22.73
2018-03-06T09:46:17.384Z,22.74
2018-03-06T09:48:45.680Z,22.77
2018-03-06T09:51:14.004Z,22.83
2018-03-06T09:53:42.917Z,22.84
2018-03-06T09:56:11.238Z,22.86
2018-03-06T09:58:39.574Z,22.86
2018-03-06T10:01:07.863Z,22.87
2018-03-06T10:03:36.150Z,22.88
2018-03-06T10:06:04.466Z,22.90
2018-03-06T10:08:32.747Z,22.92
2018-03-06T10:11:01.036Z,22.92
2018-03-06T10:13:29.368Z,22.93
2018-03-06T10:15:57.657Z,22.93
2018-03-06T10:18:25.955Z,22.92
2018-03-06T10:20:54.277Z,22.94
2018-03-06T10:23:22.589Z,22.96
2018-03-06T10:25:50.889Z,22.97
2018-03-06T10:28:19.198Z,22.99
2018-03-06T10:30:47.302Z,22.99
2018-03-06T10:33:15.588Z,23.01
2018-03-06T10:35:43.906Z,23.03
2018-03-06T10:38:12.205Z,23.05
2018-03-06T10:40:40.528Z,23.06
2018-03-06T10:43:08.835Z,23.08
2018-03-06T10:45:37.133Z,23.08
2018-03-06T10:48:05.426Z,23.10
2018-03-06T10:50:33.757Z,23.09
2018-03-06T10:53:02.097Z,23.08
2018-03-06T10:55:30.449Z,23.09
2018-03-06T10:57:58.750Z,23.10
2018-03-06T11:00:32.458Z,23.10
2018-03-06T11:03:00.583Z,23.11
2018-03-06T11:05:28.877Z,23.12
2018-03-06T11:07:57.153Z,23.13
2018-03-06T11:10:25.477Z,23.14
2018-03-06T11:12:53.745Z,23.15
2018-03-06T11:15:22.031Z,23.16
2018-03-06T11:17:50.352Z,23.17
2018-03-06T11:20:18.652Z,23.19
2018-03-06T11:22:46.939Z,23.19
2018-03-06T11:25:15.645Z,23.21
2018-03-06T11:27:44.141Z,23.21
2018-03-06T11:30:12.512Z,23.22
2018-03-06T11:32:40.665Z,23.24
2018-03-06T11:35:08.718Z,23.26
2018-03-06T11:37:36.999Z,23.26
2018-03-06T11:40:05.314Z,23.28
2018-03-06T11:42:33.636Z,23.29
2018-03-06T11:45:01.933Z,23.30
2018-03-06T11:47:30.261Z,23.31
2018-03-06T11:49:58.550Z,23.32
2018-03-06T11:52:26.831Z,23.32
2018-03-06T11:54:55.129Z,23.34
2018-03-06T11:57:23.417Z,23.34
2018-03-06T11:59:51.737Z,23.35
2018-03-06T12:02:20.073Z,23.36
2018-03-06T12:04:48.373Z,23.37
2018-03-06T12:07:16.923Z,23.37
2018-03-06T12:09:45.535Z,23.38
2018-03-06T12:12:13.832Z,23.38
2018-03-06T12:14:42.102Z,23.38
2018-03-06T12:17:10.423Z,23.38
2018-03-06T12:19:38.707Z,23.37
2018-03-06T12:22:07.002Z,23.36
2018-03-06T12:24:35.324Z,23.37
2018-03-06T12:27:03.735Z,23.36
2018-03-06T12:29:32.033Z,23.36
2018-03-06T12:32:00.366Z,23.35
2018-03-06T12:34:28.649Z,23.35
2018-03-06T12:36:56.952Z,23.34
2018-03-06T12:39:25.508Z,23.33
2018-03-06T12:41:54.165Z,23.33
2018-03-06T12:44:22.461Z,23.33
2018-03-06T12:46:50.812Z,23.33
2018-03-06T12:49:19.134Z,23.33
2018-03-06T12:51:47.598Z,23.32
2018-03-06T12:54:15.919Z,23.32
2018-03-06T12:56:44.205Z,23.32
2018-03-06T12:59:12.506Z,23.32
2018-03-06T13:01:40.793Z,23.32
2018-03-06T13:04:09.081Z,23.32
2018-03-06T13:06:37.365Z,23.32
2018-03-06T13:09:05.269Z,23.31
2018-03-06T13:11:33.573Z,23.30
2018-03-06T13:14:01.879Z,23.29
2018-03-06T13:16:30.194Z,23.28
2018-03-06T13:18:58.501Z,23.27
2018-03-06T13:21:26.598Z,23.25
2018-03-06T13:23:54.921Z,23.24
2018-03-06T13:26:23.410Z,23.24
2018-03-06T13:28:51.705Z,23.23
2018-03-06T13:31:20.028Z,23.25
2018-03-06T13:33:48.328Z,23.28
2018-03-06T13:36:16.644Z,23.30
2018-03-06T13:38:44.982Z,23.33
2018-03-06T13:41:13.470Z,23.34
2018-03-06T13:43:41.573Z,23.37
2018-03-06T13:46:09.896Z,23.38
2018-03-06T13:48:38.205Z,23.40
2018-03-06T13:51:06.518Z,23.40
2018-03-06T13:53:34.860Z,23.40
2018-03-06T13:56:03.281Z,23.39
2018-03-06T13:58:31.574Z,23.39
2018-03-06T14:00:59.921Z,23.38
2018-03-06T14:03:28.214Z,23.37
2018-03-06T14:05:56.575Z,23.38
2018-03-06T14:08:24.882Z,23.39
2018-03-06T14:10:53.197Z,23.39
2018-03-06T14:13:21.493Z,23.39
2018-03-06T14:15:49.866Z,23.39
2018-03-06T14:18:18.169Z,23.41
2018-03-06T14:20:46.478Z,23.41
2018-03-06T14:23:14.818Z,23.40
2018-03-06T14:25:43.130Z,23.41
2018-03-06T14:28:11.434Z,23.41
2018-03-06T14:30:39.765Z,23.41
2018-03-06T14:33:08.050Z,23.40
2018-03-06T14:35:36.362Z,23.39
2018-03-06T14:38:04.725Z,23.38
2018-03-06T14:40:33.029Z,23.38
2018-03-06T14:43:01.315Z,23.37
2018-03-06T14:45:29.643Z,23.37
2018-03-06T14:47:57.955Z,23.36
2018-03-06T14:50:26.277Z,23.36
2018-03-06T14:52:54.607Z,23.36
2018-03-06T14:55:22.913Z,23.36
2018-03-06T14:57:51.198Z,23.35
2018-03-06T15:00:19.521Z,23.35
2018-03-06T15:02:47.803Z,23.34
2018-03-06T15:05:16.094Z,23.33
2018-03-06T15:07:44.414Z,23.32
2018-03-06T15:10:12.712Z,23.30
2018-03-06T15:12:41.058Z,23.30
2018-03-06T15:15:09.367Z,23.28
2018-03-06T15:17:37.654Z,23.27
2018-03-06T15:20:05.956Z,23.26
2018-03-06T15:22:34.261Z,23.25
2018-03-06T15:25:02.543Z,23.25
2018-03-06T15:27:30.831Z,23.24
2018-03-06T15:29:59.126Z,23.24
2018-03-06T15:32:27.430Z,23.23
2018-03-06T15:34:55.721Z,23.23
2018-03-06T15:37:24.049Z,23.23
2018-03-06T15:39:52.418Z,23.23
2018-03-06T15:42:20.706Z,23.22
2018-03-06T15:44:48.998Z,23.22
2018-03-06T15:47:17.323Z,23.21
2018-03-06T15:49:45.624Z,23.21
2018-03-06T15:52:13.913Z,23.21
2018-03-06T15:54:42.213Z,23.21
2018-03-06T15:57:10.540Z,23.21
2018-03-06T15:59:38.837Z,23.21
2018-03-06T16:02:07.137Z,23.21
2018-03-06T16:04:35.425Z,23.21
2018-03-06T16:07:03.713Z,23.21
2018-03-06T16:09:32.010Z,23.22
2018-03-06T16:12:00.307Z,23.22
2018-03-06T16:14:28.609Z,23.22
2018-03-06T16:16:56.909Z,23.22
2018-03-06T16:19:25.206Z,23.22
2018-03-06T16:21:53.271Z,23.21
2018-03-06T16:24:21.558Z,23.21
2018-03-06T16:26:49.865Z,23.22
2018-03-06T16:29:18.169Z,23.22
2018-03-06T16:31:46.501Z,23.22
2018-03-06T16:34:14.790Z,23.21
2018-03-06T16:36:43.105Z,23.22
2018-03-06T16:39:11.426Z,23.21
2018-03-06T16:41:39.733Z,23.21
2018-03-06T16:44:08.042Z,23.21
2018-03-06T16:46:36.364Z,23.21
2018-03-06T16:49:04.666Z,23.21
2018-03-06T16:51:32.970Z,23.21
2018-03-06T16:54:01.322Z,23.20
2018-03-06T16:56:29.621Z,23.20
2018-03-06T16:58:57.727Z,23.19
2018-03-06T17:01:26.075Z,23.22
2018-03-06T17:03:54.633Z,23.23
2018-03-06T17:06:23.060Z,23.23
2018-03-06T17:08:51.369Z,23.25
2018-03-06T17:11:20.599Z,23.26
2018-03-06T17:13:48.961Z,23.28
2018-03-06T17:16:17.268Z,23.28
2018-03-06T17:18:45.558Z,23.29
2018-03-06T17:21:13.861Z,23.31
2018-03-06T17:23:42.171Z,23.32
2018-03-06T17:26:10.474Z,23.33
2018-03-06T17:28:38.769Z,23.33
2018-03-06T17:31:07.075Z,23.34
2018-03-06T17:33:35.366Z,23.35
2018-03-06T17:36:03.686Z,23.36
2018-03-06T17:38:32.177Z,23.37
2018-03-06T17:41:00.494Z,23.37
2018-03-06T17:43:28.799Z,23.37
2018-03-06T17:45:57.086Z,23.37
2018-03-06T17:48:25.388Z,23.39
2018-03-06T17:50:53.701Z,23.39
2018-03-06T17:53:22.056Z,23.40
2018-03-06T17:55:50.355Z,23.40
2018-03-06T17:58:18.672Z,23.40
2018-03-06T18:00:47.035Z,23.41
2018-03-06T18:03:15.328Z,23.43
2018-03-06T18:05:43.614Z,23.43
2018-03-06T18:08:11.911Z,23.43
2018-03-06T18:10:40.201Z,23.43
2018-03-06T18:13:08.500Z,23.43
2018-03-06T18:15:36.794Z,23.43
2018-03-06T18:18:05.097Z,23.42
2018-03-06T18:20:33.379Z,23.41
2018-03-06T18:23:01.576Z,23.41
2018-03-06T18:25:30.530Z,23.39
2018-03-06T18:27:58.825Z,23.39
2018-03-06T18:30:27.108Z,23.38
2018-03-06T18:32:55.425Z,23.38
2018-03-06T18:35:23.730Z,23.37
2018-03-06T18:37:52.039Z,23.37
2018-03-06T18:40:20.332Z,23.37
2018-03-06T18:42:48.611Z,23.35
2018-03-06T18:45:17.563Z,23.35
2018-03-06T18:47:45.844Z,23.35
2018-03-06T18:50:25.404Z,23.34
2018-03-06T18:52:53.700Z,23.34
2018-03-06T18:55:22.052Z,23.33
2018-03-06T18:57:50.344Z,23.33
2018-03-06T19:03:49.440Z,23.32
2018-03-06T19:06:23.936Z,23.30
2018-03-06T19:08:51.589Z,23.30
2018-03-06T19:11:19.895Z,23.30
2018-03-06T19:13:48.209Z,23.31
2018-03-06T19:16:16.809Z,23.32
2018-03-06T19:18:45.717Z,23.32
2018-03-06T19:21:14.398Z,23.31
2018-03-06T19:23:43.270Z,23.28
2018-03-06T19:26:12.732Z,23.25
2018-03-06T19:28:42.641Z,23.27
2018-03-06T19:31:12.590Z,23.27
2018-03-06T19:33:40.928Z,23.28
2018-03-06T19:36:10.452Z,23.27
2018-03-06T19:38:40.743Z,23.27
2018-03-06T19:41:09.178Z,23.28
2018-03-06T19:43:37.784Z,23.28
2018-03-06T19:46:07.020Z,23.28
2018-03-06T19:48:36.311Z,23.28
2018-03-06T19:51:05.934Z,23.26
2018-03-06T19:53:34.387Z,23.27
2018-03-06T19:56:03.930Z,23.28
2018-03-06T19:58:33.409Z,23.28
2018-03-06T20:01:02.832Z,23.28
2018-03-06T20:03:31.283Z,23.27
2018-03-06T20:06:00.839Z,23.28
2018-03-06T20:08:30.133Z,23.28
2018-03-06T20:10:58.654Z,23.27
2018-03-06T20:13:26.986Z,23.28
2018-03-06T20:15:56.283Z,23.28
2018-03-06T20:18:25.625Z,23.28
2018-03-06T20:20:54.017Z,23.28
2018-03-06T20:23:22.362Z,23.27
2018-03-06T20:25:56.101Z,23.27
2018-03-06T20:28:24.510Z,23.27
2018-03-06T20:30:58.438Z,23.28
2018-03-06T20:33:26.754Z,23.27
2018-03-06T20:35:55.041Z,23.27
2018-03-06T20:38:28.841Z,23.27
2018-03-06T20:40:57.195Z,23.26
2018-03-06T20:43:25.495Z,23.26
2018-03-06T20:45:59.566Z,23.26
2018-03-06T20:48:27.897Z,23.27
2018-03-06T20:50:56.207Z,23.27
2018-03-06T20:53:30.034Z,23.27
2018-03-06T20:55:58.676Z,23.28
2018-03-06T20:58:27.094Z,23.26
2018-03-06T21:00:56.000Z,23.26
2018-03-06T21:03:24.352Z,23.27
2018-03-06T21:05:52.642Z,23.26
2018-03-06T21:08:20.935Z,23.27
2018-03-06T21:10:49.776Z,23.26
2018-03-06T21:13:18.092Z,23.26
2018-03-06T21:15:46.385Z,23.27
2018-03-06T21:18:14.682Z,23.28
2018-03-06T21:20:42.996Z,23.27
2018-03-06T21:23:11.293Z,23.27
2018-03-06T21:25:39.625Z,23.28
2018-03-06T21:28:07.914Z,23.28
2018-03-06T21:30:36.277Z,23.28
2018-03-06T21:33:04.602Z,23.28
2018-03-06T21:35:32.917Z,23.29
2018-03-06T21:38:01.225Z,23.28
2018-03-06T21:40:29.527Z,23.29
2018-03-06T21:42:57.922Z,23.28
2018-03-06T21:45:26.358Z,23.28
2018-03-06T21:47:54.687Z,23.27
2018-03-06T21:50:23.006Z,23.27
2018-03-06T21:52:51.326Z,23.28
2018-03-06T21:55:19.637Z,23.28
2018-03-06T21:57:47.942Z,23.27
2018-03-06T22:00:16.238Z,23.27
2018-03-06T22:02:44.562Z,23.28
2018-03-06T22:05:13.156Z,23.28
2018-03-06T22:07:41.491Z,23.28
2018-03-06T22:10:09.804Z,23.28
2018-03-06T22:12:38.108Z,23.28
2018-03-06T22:15:06.238Z,23.29
2018-03-06T22:17:34.535Z,23.29
2018-03-06T22:20:02.822Z,23.29
2018-03-06T22:22:31.124Z,23.29
2018-03-06T22:24:59.516Z,23.31
2018-03-06T22:27:27.818Z,23.30
2018-03-06T22:29:56.137Z,23.31
2018-03-06T22:32:24.416Z,23.29
2018-03-06T22:34:52.743Z,23.29
2018-03-06T22:37:21.074Z,23.29
2018-03-06T22:39:49.371Z,23.29
2018-03-06T22:42:17.685Z,23.29
2018-03-06T22:44:45.993Z,23.28
2018-03-06T22:47:14.323Z,23.27
2018-03-06T22:49:43.421Z,23.28
2018-03-06T22:52:11.731Z,23.27
2018-03-06T22:54:40.028Z,23.28
2018-03-06T22:57:08.334Z,23.27
2018-03-06T22:59:36.704Z,23.28
2018-03-06T23:02:04.996Z,23.29
2018-03-06T23:04:33.274Z,23.30
2018-03-06T23:07:01.637Z,23.30
2018-03-06T23:09:29.925Z,23.31
2018-03-06T23:11:58.275Z,23.31
2018-03-06T23:14:26.584Z,23.31
2018-03-06T23:16:58.757Z,23.32
2018-03-06T23:19:27.121Z,23.31
2018-03-06T23:21:55.408Z,23.31
2018-03-06T23:24:24.715Z,23.32
2018-03-06T23:26:53.016Z,23.32
2018-03-06T23:29:21.346Z,23.33
2018-03-06T23:31:49.658Z,23.32
2018-03-06T23:34:17.940Z,23.32
2018-03-06T23:36:46.272Z,23.32
2018-03-06T23:39:14.580Z,23.32
2018-03-06T23:41:42.886Z,23.31
2018-03-06T23:44:11.171Z,23.31
2018-03-06T23:46:39.454Z,23.31
2018-03-06T23:49:07.946Z,23.31
2018-03-06T23:51:36.220Z,23.31
2018-03-06T23:54:04.698Z,23.30
2018-03-06T23:56:32.969Z,23.30
2018-03-06T23:59:01.253Z,23.29
